Time;durP1;ratioP1;P1;durP2;ratioP2;P2;SDS_P1;SDS_P2;PMS_P1;PMS_P2;Temp;Humidity;BMP_temperature;BMP_pressure;BME280_temperature;BME280_humidity;BME280_pressure;Samples;Min_cycle;Max_cycle;Signal;HPM_P1;HPM_P2
2023/06/01 00:04:44;;;;;;;4.90;2.70;;;24.30;76.30;;;;;;10980647;32;20027;-73
2023/06/01 00:10:46;;;;;;;2.92;1.95;;;24.20;76.50;;;;;;10980491;32;20010;-73
2023/06/01 00:16:48;;;;;;;4.05;2.90;;;24.20;76.50;;;;;;10980279;32;20010;-73
2023/06/01 00:22:51;;;;;;;5.45;3.50;;;24.10;76.40;;;;;;10965877;32;20037;-73
2023/06/01 00:28:53;;;;;;;5.00;3.20;;;24.00;76.60;;;;;;10963092;32;20396;-73
2023/06/01 00:34:55;;;;;;;4.07;2.53;;;23.90;76.60;;;;;;10980000;32;20054;-73
2023/06/01 00:40:57;;;;;;;4.10;2.62;;;23.80;76.70;;;;;;10979714;32;20015;-73
2023/06/01 00:47:00;;;;;;;4.22;2.92;;;23.80;76.80;;;;;;10965633;32;20026;-73
2023/06/01 00:53:05;;;;;;;7.65;3.37;;;23.80;76.50;;;;;;10975586;32;20428;-73
2023/06/01 00:59:07;;;;;;;4.78;3.25;;;23.70;76.50;;;;;;10965549;32;20400;-74
2023/06/01 01:05:11;;;;;;;5.72;3.40;;;23.70;76.50;;;;;;10979392;32;20392;-74
2023/06/01 01:11:26;;;;;;;6.57;4.05;;;23.70;76.30;;;;;;10964441;32;20030;-74
2023/06/01 01:17:51;;;;;;;4.32;2.78;;;23.70;76.40;;;;;;10961060;32;20053;-74
2023/06/01 01:24:12;;;;;;;4.37;3.33;;;23.60;76.50;;;;;;10965506;32;20050;-74
2023/06/01 01:30:14;;;;;;;5.85;3.87;;;23.40;76.70;;;;;;10978947;32;20019;-74
2023/06/01 01:36:16;;;;;;;6.82;3.72;;;23.40;76.70;;;;;;10972601;32;20006;-74
2023/06/01 01:42:19;;;;;;;6.93;3.53;;;23.30;76.90;;;;;;10985879;32;20026;-74
2023/06/01 01:48:35;;;;;;;5.43;3.97;;;23.20;76.90;;;;;;10985667;32;20015;-74
2023/06/01 01:54:41;;;;;;;7.57;4.15;;;23.20;76.90;;;;;;10971630;32;20045;-74
2023/06/01 02:00:43;;;;;;;6.47;4.55;;;23.20;76.50;;;;;;10971245;32;20026;-74
2023/06/01 02:06:46;;;;;;;5.43;3.60;;;23.20;76.40;;;;;;10984732;32;20031;-74
2023/06/01 02:12:48;;;;;;;5.57;4.20;;;23.00;76.60;;;;;;10984682;32;20022;-74
2023/06/01 02:18:50;;;;;;;7.75;4.97;;;23.00;76.50;;;;;;10984666;32;20040;-74
2023/06/01 02:24:52;;;;;;;6.70;4.47;;;22.90;76.60;;;;;;10984200;32;20435;-74
2023/06/01 02:30:55;;;;;;;9.23;5.10;;;22.90;76.50;;;;;;10984173;32;20049;-74
2023/06/01 02:36:57;;;;;;;6.82;4.68;;;22.80;76.70;;;;;;10970418;32;20298;-74
2023/06/01 02:42:59;;;;;;;6.47;4.47;;;22.80;76.80;;;;;;10983026;32;20040;-74
2023/06/01 02:49:01;;;;;;;6.47;5.03;;;22.70;76.90;;;;;;10983581;32;20352;-73
2023/06/01 02:55:04;;;;;;;5.40;3.92;;;22.70;77.10;;;;;;10983291;32;20046;-73
2023/06/01 03:01:11;;;;;;;6.80;5.22;;;22.50;77.20;;;;;;10983632;32;20380;-74
2023/06/01 03:07:14;;;;;;;6.78;4.28;;;22.40;77.30;;;;;;10982777;32;20018;-74
2023/06/01 03:13:16;;;;;;;7.82;5.03;;;22.50;77.20;;;;;;10982563;32;20011;-74
2023/06/01 03:19:18;;;;;;;10.18;4.10;;;22.40;77.30;;;;;;10978560;32;20324;-74
2023/06/01 03:25:21;;;;;;;6.40;4.53;;;22.40;77.30;;;;;;10983055;32;20274;-74
2023/06/01 03:31:23;;;;;;;7.07;4.18;;;22.50;77.50;;;;;;10982540;32;20341;-74
2023/06/01 03:37:26;;;;;;;13.23;5.05;;;22.30;77.50;;;;;;10981683;32;20393;-74
2023/06/01 03:43:28;;;;;;;8.25;5.97;;;22.30;77.30;;;;;;10981996;32;20022;-74
2023/06/01 03:49:30;;;;;;;8.45;5.15;;;22.40;77.30;;;;;;10981250;32;20044;-74
2023/06/01 03:55:33;;;;;;;8.25;4.00;;;22.30;77.60;;;;;;10980954;32;20014;-74
2023/06/01 04:01:39;;;;;;;6.72;4.80;;;22.30;77.60;;;;;;10966795;32;20085;-74
2023/06/01 04:07:41;;;;;;;6.75;4.57;;;22.30;77.50;;;;;;10966753;32;20034;-74
2023/06/01 04:13:46;;;;;;;7.22;4.97;;;22.30;77.30;;;;;;10981190;32;20380;-74
2023/06/01 04:19:48;;;;;;;6.15;5.05;;;22.30;77.30;;;;;;10981009;32;20019;-74
2023/06/01 04:26:04;;;;;;;5.70;4.10;;;22.30;77.30;;;;;;10981061;32;20023;-74
2023/06/01 04:32:41;;;;;;;6.30;4.80;;;22.30;77.40;;;;;;10859855;32;20373;-74
2023/06/01 04:38:45;;;;;;;8.52;4.87;;;22.20;77.50;;;;;;10847958;32;20039;-74
2023/06/01 04:44:49;;;;;;;5.82;4.72;;;22.20;77.70;;;;;;10857983;32;20305;-74
2023/06/01 04:50:51;;;;;;;4.70;4.05;;;22.10;77.90;;;;;;10862746;32;20024;-75
2023/06/01 04:56:53;;;;;;;5.82;4.10;;;22.20;78.00;;;;;;10860641;32;20436;-75
2023/06/01 05:02:55;;;;;;;7.97;4.65;;;22.20;78.10;;;;;;10863092;32;20051;-75
2023/06/01 05:08:58;;;;;;;7.03;4.35;;;22.30;78.20;;;;;;10868328;32;20047;-75
2023/06/01 05:15:01;;;;;;;6.85;4.85;;;22.50;78.20;;;;;;10870597;32;20044;-75
2023/06/01 05:21:03;;;;;;;8.23;5.20;;;22.70;77.90;;;;;;10870187;32;20012;-75
2023/06/01 05:27:06;;;;;;;7.85;4.43;;;22.80;77.90;;;;;;10870074;32;20075;-73
2023/06/01 05:33:08;;;;;;;6.03;4.45;;;23.00;77.70;;;;;;10870477;32;20050;-74
2023/06/01 05:39:10;;;;;;;6.82;4.47;;;23.10;77.80;;;;;;10855878;32;20061;-74
2023/06/01 05:45:12;;;;;;;6.25;4.43;;;23.20;77.90;;;;;;10869902;32;20035;-76
2023/06/01 05:51:14;;;;;;;6.75;2.83;;;23.30;78.00;;;;;;10866576;32;20046;-76
2023/06/01 05:57:17;;;;;;;7.55;4.50;;;23.40;77.90;;;;;;10868980;32;20385;-74
2023/06/01 06:03:19;;;;;;;6.55;3.42;;;23.50;78.20;;;;;;10856495;32;20028;-75
2023/06/01 06:09:21;;;;;;;5.82;4.03;;;23.60;78.00;;;;;;10865683;32;20054;-75
2023/06/01 06:15:23;;;;;;;6.45;4.18;;;23.70;77.80;;;;;;10853581;32;20338;-76
2023/06/01 06:21:25;;;;;;;5.32;3.17;;;23.70;77.00;;;;;;10972294;32;20051;-74
2023/06/01 06:27:27;;;;;;;7.62;4.37;;;23.70;76.60;;;;;;10958015;32;20026;-74
2023/06/01 06:33:29;;;;;;;5.25;3.47;;;23.80;76.90;;;;;;10983966;32;20014;-76
2023/06/01 06:39:31;;;;;;;5.60;3.75;;;24.00;76.50;;;;;;10984838;32;20018;-76
2023/06/01 06:45:33;;;;;;;9.10;3.42;;;24.10;75.60;;;;;;10984614;32;20026;-76
2023/06/01 06:51:37;;;;;;;4.35;2.97;;;24.20;76.00;;;;;;10980161;32;20415;-75
2023/06/01 06:57:40;;;;;;;2.50;1.98;;;24.30;75.20;;;;;;10955835;32;20035;-74
2023/06/01 07:03:42;;;;;;;7.37;3.70;;;24.50;75.60;;;;;;10982819;32;20022;-74
2023/06/01 07:09:45;;;;;;;5.43;3.75;;;24.60;75.40;;;;;;10964238;32;20034;-75
2023/06/01 07:15:47;;;;;;;5.60;3.37;;;24.70;74.30;;;;;;10982297;32;20019;-75
2023/06/01 07:21:49;;;;;;;7.82;3.65;;;24.80;74.80;;;;;;10968365;32;20035;-74
2023/06/01 07:27:52;;;;;;;4.37;3.00;;;24.80;75.20;;;;;;10551000;27;12030684;-74
2023/06/01 07:33:57;;;;;;;8.45;5.72;;;24.90;74.70;;;;;;10898349;32;20027;-74
2023/06/01 07:40:00;;;;;;;5.70;3.15;;;25.10;74.80;;;;;;10902742;32;20349;-75
2023/06/01 07:46:02;;;;;;;4.65;3.12;;;25.20;73.80;;;;;;10902045;32;20035;-75
2023/06/01 07:52:05;;;;;;;4.20;3.20;;;25.30;73.90;;;;;;10948951;32;20010;-75
2023/06/01 07:58:08;;;;;;;9.13;5.00;;;25.40;73.60;;;;;;11005359;32;20019;-74
2023/06/01 08:04:10;;;;;;;6.80;4.32;;;25.40;72.50;;;;;;11004419;32;20034;-75
2023/06/01 08:10:16;;;;;;;7.90;5.95;;;25.50;72.00;;;;;;11005117;32;20022;-76
2023/06/01 08:16:18;;;;;;;11.02;7.40;;;25.70;71.10;;;;;;11018427;32;20053;-74
2023/06/01 08:22:20;;;;;;;7.68;4.37;;;25.80;71.10;;;;;;11018184;32;20422;-74
2023/06/01 08:28:23;;;;;;;12.68;6.90;;;25.80;69.60;;;;;;11017666;32;20019;-74
2023/06/01 08:34:25;;;;;;;5.75;3.72;;;25.80;68.40;;;;;;11014084;32;20372;-75
2023/06/01 08:40:27;;;;;;;12.13;4.05;;;25.90;68.50;;;;;;11001696;32;20309;-74
2023/06/01 08:46:34;;;;;;;9.05;6.07;;;26.10;68.40;;;;;;11017556;32;20018;-74
2023/06/01 08:52:37;;;;;;;7.25;5.05;;;26.20;67.60;;;;;;11017592;32;20049;-74
2023/06/01 08:58:41;;;;;;;7.87;4.78;;;26.30;67.00;;;;;;11017349;32;20385;-75
2023/06/01 09:04:45;;;;;;;7.75;5.05;;;26.30;66.40;;;;;;11017291;32;20431;-74
2023/06/01 09:10:47;;;;;;;9.82;5.03;;;26.40;66.80;;;;;;11017317;32;20036;-75
2023/06/01 09:16:50;;;;;;;8.55;5.82;;;26.40;66.60;;;;;;11004239;32;20401;-73
2023/06/01 09:22:54;;;;;;;7.07;5.07;;;26.50;66.40;;;;;;11017121;32;20328;-75
2023/06/01 09:28:57;;;;;;;12.68;4.57;;;26.60;66.90;;;;;;11016802;32;20435;-74
2023/06/01 09:35:00;;;;;;;9.23;4.18;;;26.80;66.30;;;;;;11002212;32;20030;-74
2023/06/01 09:41:03;;;;;;;5.30;3.60;;;27.00;65.60;;;;;;11016640;32;20015;-74
2023/06/01 09:47:12;;;;;;;10.43;5.10;;;27.10;65.80;;;;;;11016622;32;20018;-75
2023/06/01 09:53:15;;;;;;;7.10;4.00;;;27.30;65.20;;;;;;11005189;32;20030;-75
2023/06/01 09:59:17;;;;;;;8.02;5.55;;;27.30;63.90;;;;;;11023362;32;20015;-72
2023/06/01 10:05:21;;;;;;;10.68;6.68;;;27.60;66.10;;;;;;11023079;32;20041;-75
2023/06/01 10:11:23;;;;;;;8.05;5.20;;;27.50;65.40;;;;;;11008614;32;20049;-75
2023/06/01 10:17:26;;;;;;;6.87;4.72;;;27.60;65.60;;;;;;11010192;32;20014;-75
2023/06/01 10:23:28;;;;;;;6.87;4.43;;;27.80;64.70;;;;;;11022270;32;20026;-75
2023/06/01 10:29:32;;;;;;;7.68;4.82;;;27.80;63.60;;;;;;11022070;32;20019;-75
2023/06/01 10:35:43;;;;;;;7.55;4.65;;;28.10;62.60;;;;;;11022072;32;20041;-75
2023/06/01 10:41:45;;;;;;;7.90;4.35;;;28.10;61.80;;;;;;11021801;32;20010;-74
2023/06/01 10:48:38;;;;;;;9.23;6.12;;;28.10;61.20;;;;;;11007589;32;20106;-74
2023/06/01 10:54:40;;;;;;;8.93;5.93;;;28.30;62.50;;;;;;11021486;32;20034;-75
2023/06/01 11:00:43;;;;;;;9.05;6.03;;;28.50;61.90;;;;;;11019423;32;20293;-75
2023/06/01 11:06:45;;;;;;;8.07;4.55;;;28.80;60.50;;;;;;11020131;32;20335;-75
2023/06/01 11:13:17;;;;;;;10.18;4.97;;;28.90;58.80;;;;;;11020201;32;20021;-75
2023/06/01 11:19:27;;;;;;;6.37;4.50;;;29.20;59.50;;;;;;11019088;32;20026;-75
2023/06/01 11:25:32;;;;;;;7.87;5.10;;;29.30;59.20;;;;;;11020042;32;20030;-75
2023/06/01 11:31:40;;;;;;;6.50;4.37;;;29.30;58.40;;;;;;11020016;32;20040;-74
2023/06/01 11:37:42;;;;;;;8.63;5.37;;;29.60;57.60;;;;;;11019793;32;20018;-75
2023/06/01 11:43:44;;;;;;;7.45;5.12;;;29.80;58.80;;;;;;11016964;32;20030;-75
2023/06/01 11:49:48;;;;;;;9.73;5.82;;;29.80;60.80;;;;;;11019427;32;20065;-74
2023/06/01 11:55:52;;;;;;;7.37;5.07;;;29.80;59.20;;;;;;11019029;32;20022;-73
2023/06/01 12:01:54;;;;;;;6.25;4.07;;;30.00;56.90;;;;;;11005243;32;20332;-74
2023/06/01 12:07:57;;;;;;;11.25;5.37;;;30.00;61.20;;;;;;11018794;32;20436;-75
2023/06/01 12:14:01;;;;;;;6.40;3.60;;;29.90;60.80;;;;;;11018347;32;20064;-74
2023/06/01 12:20:03;;;;;;;8.75;4.75;;;29.80;60.00;;;;;;11017628;32;20037;-74
2023/06/01 12:26:08;;;;;;;7.97;3.92;;;30.10;58.70;;;;;;11000795;32;20431;-73
2023/06/01 12:32:11;;;;;;;11.68;5.15;;;30.10;57.10;;;;;;10991446;32;20014;-73
2023/06/01 12:38:14;;;;;;;5.65;3.72;;;30.20;56.70;;;;;;11017716;32;20019;-73
2023/06/01 12:44:20;;;;;;;8.90;4.22;;;30.20;57.80;;;;;;11017512;32;20010;-73
2023/06/01 12:50:23;;;;;;;7.83;4.90;;;30.20;55.80;;;;;;11017302;32;20052;-73
2023/06/01 12:56:26;;;;;;;6.05;4.15;;;30.30;54.70;;;;;;11003548;32;20324;-73
2023/06/01 13:02:29;;;;;;;4.93;3.53;;;30.30;54.10;;;;;;11017097;32;20022;-74
2023/06/01 13:08:32;;;;;;;7.18;4.68;;;30.30;59.30;;;;;;11016869;32;20018;-72
2023/06/01 13:14:34;;;;;;;6.43;4.05;;;30.00;62.80;;;;;;11016528;32;20380;-74
2023/06/01 13:20:36;;;;;;;9.38;5.10;;;29.80;58.60;;;;;;11002440;32;20033;-73
2023/06/01 13:26:38;;;;;;;7.10;4.45;;;29.80;57.40;;;;;;10979097;32;20026;-74
2023/06/01 13:32:40;;;;;;;7.20;4.32;;;29.80;57.60;;;;;;10991581;32;20034;-73
2023/06/01 13:38:42;;;;;;;3.83;2.75;;;29.70;57.90;;;;;;11023687;32;20018;-74
2023/06/01 13:44:46;;;;;;;5.47;2.85;;;29.60;58.50;;;;;;11011576;32;20229;-74
2023/06/01 13:50:48;;;;;;;5.87;4.10;;;29.70;56.40;;;;;;10979481;32;20095;-74
2023/06/01 13:56:50;;;;;;;7.40;3.65;;;29.70;55.80;;;;;;11005275;32;20045;-75
2023/06/01 14:02:53;;;;;;;5.05;3.25;;;29.60;56.60;;;;;;11007018;32;20052;-75
2023/06/01 14:08:55;;;;;;;4.15;2.62;;;29.60;58.00;;;;;;11002659;32;20034;-74
2023/06/01 14:14:57;;;;;;;5.40;2.85;;;29.60;56.50;;;;;;11022209;32;20072;-74
2023/06/01 14:20:59;;;;;;;4.25;3.12;;;29.70;56.20;;;;;;10971056;32;20035;-74
2023/06/01 14:27:02;;;;;;;4.80;2.90;;;29.70;56.50;;;;;;10969657;32;20039;-73
2023/06/01 14:33:04;;;;;;;4.30;2.78;;;29.60;56.60;;;;;;10983652;32;20022;-74
2023/06/01 14:39:06;;;;;;;6.00;3.83;;;29.60;58.00;;;;;;10982727;32;20015;-74
2023/06/01 14:45:11;;;;;;;4.28;2.35;;;29.60;60.20;;;;;;10969054;32;20046;-74
2023/06/01 14:51:13;;;;;;;4.18;2.78;;;29.30;58.40;;;;;;10982627;32;20041;-74
2023/06/01 14:57:15;;;;;;;5.75;3.37;;;29.40;57.50;;;;;;10982189;32;20045;-72
2023/06/01 15:03:17;;;;;;;7.62;3.42;;;29.40;58.40;;;;;;11007149;32;20030;-74
2023/06/01 15:09:20;;;;;;;3.95;1.95;;;29.40;57.90;;;;;;11020883;32;20031;-74
2023/06/01 15:15:22;;;;;;;5.65;3.15;;;29.40;59.10;;;;;;11021361;32;20018;-75
2023/06/01 15:21:24;;;;;;;4.47;2.47;;;29.40;57.20;;;;;;11005479;32;20038;-75
2023/06/01 15:27:26;;;;;;;4.18;2.17;;;29.60;55.70;;;;;;10972175;27;20038;-74
2023/06/01 15:33:28;;;;;;;4.57;2.75;;;29.60;54.70;;;;;;10944976;32;20047;-74
2023/06/01 15:39:30;;;;;;;3.15;2.12;;;29.80;54.20;;;;;;10929276;32;20038;-74
2023/06/01 15:45:32;;;;;;;3.92;2.45;;;29.70;53.90;;;;;;10944295;32;20019;-74
2023/06/01 15:51:35;;;;;;;3.17;1.80;;;29.60;55.20;;;;;;10943793;32;20050;-74
2023/06/01 15:57:37;;;;;;;3.45;1.60;;;29.60;54.70;;;;;;10943726;32;20015;-74
2023/06/01 16:03:39;;;;;;;2.30;1.80;;;29.80;55.10;;;;;;10943304;32;20019;-74
2023/06/01 16:09:41;;;;;;;2.65;1.80;;;29.80;54.60;;;;;;10916575;32;20030;-74
2023/06/01 16:15:43;;;;;;;4.70;2.10;;;30.00;54.80;;;;;;10942862;32;20134;-74
2023/06/01 16:21:45;;;;;;;8.48;2.05;;;30.00;54.40;;;;;;10941911;32;20014;-74
2023/06/01 16:27:47;;;;;;;4.65;2.90;;;30.00;54.10;;;;;;10942123;32;20058;-76
2023/06/01 16:33:49;;;;;;;3.95;2.58;;;30.00;54.20;;;;;;10943065;32;20015;-70
2023/06/01 16:39:52;;;;;;;5.28;2.65;;;29.80;54.70;;;;;;10941754;32;20050;-70
2023/06/01 16:45:54;;;;;;;4.93;1.95;;;29.70;54.40;;;;;;10941698;32;20065;-69
2023/06/01 16:51:56;;;;;;;4.80;2.25;;;29.60;54.60;;;;;;10942490;32;20015;-70
2023/06/01 16:57:58;;;;;;;5.55;2.60;;;29.50;55.00;;;;;;10942645;32;20045;-70
2023/06/01 17:04:00;;;;;;;3.12;1.70;;;29.40;55.10;;;;;;10945414;32;20341;-70
2023/06/01 17:10:03;;;;;;;4.93;1.83;;;29.20;56.30;;;;;;10950106;32;20018;-70
2023/06/01 17:16:06;;;;;;;2.15;1.25;;;29.00;56.60;;;;;;10949806;32;20042;-70
2023/06/01 17:22:10;;;;;;;7.35;1.75;;;28.90;57.20;;;;;;10948803;32;20046;-71
2023/06/01 17:28:12;;;;;;;5.43;1.45;;;28.80;57.30;;;;;;10935286;32;20443;-71
2023/06/01 17:34:15;;;;;;;2.20;1.40;;;28.70;58.00;;;;;;10958173;32;20045;-70
2023/06/01 17:40:17;;;;;;;1.87;0.98;;;28.60;58.40;;;;;;10985080;32;20022;-72
2023/06/01 17:46:19;;;;;;;1.75;0.88;;;28.60;58.80;;;;;;10984211;32;20027;-71
2023/06/01 17:52:22;;;;;;;2.62;1.15;;;28.60;59.30;;;;;;10967820;32;20455;-71
2023/06/01 17:58:24;;;;;;;3.40;1.02;;;28.90;59.10;;;;;;10935075;32;20019;-71
2023/06/01 18:04:26;;;;;;;2.97;1.37;;;28.90;59.80;;;;;;10946013;32;20027;-72
2023/06/01 18:10:28;;;;;;;2.15;1.00;;;28.60;60.90;;;;;;10947973;32;20432;-71
2023/06/01 18:16:30;;;;;;;2.25;1.20;;;28.40;61.80;;;;;;10974184;32;20018;-73
2023/06/01 18:22:32;;;;;;;2.40;1.25;;;28.20;63.20;;;;;;10981394;32;20053;-73
2023/06/01 18:28:35;;;;;;;8.93;3.50;;;27.90;65.10;;;;;;10984299;32;20428;-73
2023/06/01 18:34:37;;;;;;;4.68;1.75;;;27.80;66.10;;;;;;10985291;32;20037;-73
2023/06/01 18:40:39;;;;;;;2.92;1.65;;;27.70;66.40;;;;;;10985072;32;20408;-73
2023/06/01 18:46:41;;;;;;;4.82;1.50;;;27.60;67.50;;;;;;10983919;32;20033;-74
2023/06/01 18:52:43;;;;;;;2.37;1.25;;;27.50;67.80;;;;;;10984411;32;20412;-74
2023/06/01 18:58:46;;;;;;;1.52;1.17;;;27.30;68.20;;;;;;10982300;32;20045;-73
2023/06/01 19:04:48;;;;;;;4.47;1.45;;;27.30;68.30;;;;;;10982765;32;20057;-73
2023/06/01 19:10:58;;;;;;;2.62;1.60;;;27.20;68.60;;;;;;10982045;32;20015;-73
2023/06/01 19:17:00;;;;;;;3.67;1.98;;;27.10;68.80;;;;;;10982192;32;20396;-74
2023/06/01 19:23:06;;;;;;;6.62;1.55;;;27.00;69.10;;;;;;10982377;32;20041;-74
2023/06/01 19:29:11;;;;;;;2.12;1.55;;;26.90;69.30;;;;;;10981865;32;20014;-73
2023/06/01 19:35:15;;;;;;;2.92;2.15;;;26.90;69.50;;;;;;10981823;32;20023;-73
2023/06/01 19:41:17;;;;;;;5.60;2.50;;;26.80;69.50;;;;;;10981697;32;20019;-73
2023/06/01 19:47:29;;;;;;;5.32;3.25;;;26.70;69.40;;;;;;10967261;32;20027;-73
2023/06/01 19:53:31;;;;;;;2.92;1.87;;;26.60;69.60;;;;;;10981064;32;20041;-73
2023/06/01 19:59:33;;;;;;;4.30;2.47;;;26.50;69.80;;;;;;10967482;32;20348;-73
2023/06/01 20:05:35;;;;;;;4.95;2.58;;;26.40;70.20;;;;;;10979019;32;20409;-73
2023/06/01 20:11:40;;;;;;;5.90;3.12;;;26.30;70.50;;;;;;10980137;32;20328;-73
2023/06/01 20:17:42;;;;;;;4.57;2.80;;;26.30;71.90;;;;;;10980590;32;20037;-73
2023/06/01 20:23:44;;;;;;;6.97;2.70;;;26.30;72.20;;;;;;10980371;32;20019;-74
2023/06/01 20:29:47;;;;;;;3.12;2.00;;;26.20;72.20;;;;;;10980077;32;20023;-74
2023/06/01 20:35:49;;;;;;;4.18;3.08;;;26.10;72.40;;;;;;10979941;32;20065;-73
2023/06/01 20:41:55;;;;;;;4.97;2.67;;;26.10;72.70;;;;;;10979560;32;20041;-73
2023/06/01 20:47:57;;;;;;;3.25;2.10;;;26.00;72.90;;;;;;10978406;32;20036;-74
2023/06/01 20:54:02;;;;;;;4.62;2.80;;;26.00;72.90;;;;;;10978794;32;20050;-73
2023/06/01 21:00:05;;;;;;;2.67;1.67;;;25.90;73.20;;;;;;10979559;32;20015;-73
2023/06/01 21:06:07;;;;;;;3.78;2.40;;;25.80;73.20;;;;;;10979444;32;20019;-73
2023/06/01 21:12:10;;;;;;;5.35;3.10;;;25.80;73.20;;;;;;10965492;32;20019;-73
2023/06/01 21:18:12;;;;;;;5.45;3.47;;;25.80;73.30;;;;;;10979313;32;20333;-73
2023/06/01 21:24:15;;;;;;;3.65;2.22;;;25.80;73.50;;;;;;10978987;32;20438;-73
2023/06/01 21:30:17;;;;;;;9.05;3.47;;;25.70;73.40;;;;;;10978091;32;20038;-73
2023/06/01 21:36:19;;;;;;;8.65;3.92;;;25.80;73.30;;;;;;10978956;32;20047;-73
2023/06/01 21:42:21;;;;;;;5.97;3.50;;;25.70;73.80;;;;;;10977358;32;20023;-73
2023/06/01 21:48:24;;;;;;;4.62;2.92;;;25.70;74.00;;;;;;10980068;32;20427;-73
2023/06/01 21:54:26;;;;;;;4.40;2.78;;;25.50;74.10;;;;;;10985828;32;20014;-73
2023/06/01 22:00:28;;;;;;;5.30;3.83;;;25.40;74.60;;;;;;10982949;32;20425;-73
2023/06/01 22:06:49;;;;;;;5.70;3.83;;;25.40;75.20;;;;;;10985228;32;20303;-73
2023/06/01 22:12:51;;;;;;;5.50;3.28;;;25.40;74.80;;;;;;10985133;32;20018;-73
2023/06/01 22:18:53;;;;;;;6.03;3.42;;;25.30;75.10;;;;;;10980873;32;20022;-73
2023/06/01 22:24:56;;;;;;;5.43;3.42;;;25.20;75.30;;;;;;10984242;32;20034;-73
2023/06/01 22:31:06;;;;;;;6.85;3.50;;;25.20;75.70;;;;;;10970005;32;20053;-73
2023/06/01 22:37:17;;;;;;;5.50;3.87;;;25.20;75.30;;;;;;10970255;32;20065;-73
2023/06/01 22:50:45;;;;;;;7.25;3.83;;;25.00;75.40;;;;;;10981146;32;20384;-74
2023/06/01 22:56:47;;;;;;;5.43;3.35;;;25.00;75.20;;;;;;10984368;32;20006;-74
2023/06/01 23:02:49;;;;;;;5.40;3.53;;;24.80;75.70;;;;;;10978663;32;20053;-74
2023/06/01 23:08:55;;;;;;;5.87;3.50;;;24.80;75.80;;;;;;10983076;32;20030;-74
2023/06/01 23:14:57;;;;;;;6.30;3.67;;;24.80;75.80;;;;;;10982887;32;20014;-74
2023/06/01 23:20:59;;;;;;;5.68;4.10;;;24.80;76.10;;;;;;10982746;32;20050;-74
2023/06/01 23:27:02;;;;;;;6.20;4.12;;;24.80;75.80;;;;;;11005119;27;20030;-73
2023/06/01 23:33:04;;;;;;;8.05;4.07;;;24.70;75.70;;;;;;11020370;32;20037;-73
2023/06/01 23:39:08;;;;;;;6.97;4.47;;;24.60;75.50;;;;;;11019939;32;20040;-73
2023/06/01 23:45:13;;;;;;;5.22;3.35;;;24.40;75.80;;;;;;11018927;32;20030;-73
2023/06/01 23:51:15;;;;;;;7.22;4.35;;;24.30;76.10;;;;;;11019700;32;20023;-73
2023/06/01 23:57:18;;;;;;;6.90;4.97;;;24.10;76.30;;;;;;11019544;32;20010;-73
